Time;durP1;ratioP1;P1;durP2;ratioP2;P2;SDS_P1;SDS_P2;PMS_P1;PMS_P2;Temp;Humidity;BMP_temperature;BMP_pressure;BME280_temperature;BME280_humidity;BME280_pressure;Samples;Min_cycle;Max_cycle;Signal;HPM_P1;HPM_P2
2023/05/31 00:01:10;;;;;;;12.70;9.90;;;12.40;99.90;;;;;;4969729;29;20458;-81
2023/05/31 00:03:40;;;;;;;15.47;9.40;;;12.40;99.90;;;;;;4969297;29;20470;-81
2023/05/31 00:06:10;;;;;;;16.97;10.13;;;12.30;99.90;;;;;;4971090;29;20462;-81
2023/05/31 00:08:39;;;;;;;12.97;9.47;;;12.30;99.90;;;;;;4970380;28;20465;-81
2023/05/31 00:11:09;;;;;;;15.57;9.87;;;12.30;99.90;;;;;;4971730;29;20461;-81
2023/05/31 00:13:39;;;;;;;13.83;9.57;;;12.20;99.90;;;;;;4969069;29;20458;-81
2023/05/31 00:16:08;;;;;;;18.20;9.80;;;12.20;99.90;;;;;;4968486;29;20477;-83
2023/05/31 00:18:57;;;;;;;14.27;10.00;;;12.10;99.90;;;;;;4969338;29;20451;-82
2023/05/31 00:21:26;;;;;;;12.60;9.23;;;12.10;99.90;;;;;;4969593;29;20494;-82
2023/05/31 00:23:54;;;;;;;18.60;11.60;;;12.10;99.90;;;;;;4968862;29;20858;-82
2023/05/31 00:26:23;;;;;;;15.47;9.50;;;12.10;99.90;;;;;;4969119;28;20474;-81
2023/05/31 00:28:52;;;;;;;12.63;9.23;;;12.00;99.90;;;;;;4968861;29;20450;-81
2023/05/31 00:31:20;;;;;;;11.43;9.17;;;12.00;99.90;;;;;;4967855;29;20969;-81
2023/05/31 00:33:48;;;;;;;11.63;9.20;;;12.00;99.90;;;;;;4968005;29;20457;-81
2023/05/31 00:36:17;;;;;;;11.63;8.80;;;12.00;99.90;;;;;;4967537;29;20505;-80
2023/05/31 00:38:45;;;;;;;12.30;8.60;;;12.00;99.90;;;;;;4967121;29;20537;-80
2023/05/31 00:41:13;;;;;;;13.20;8.53;;;12.00;99.90;;;;;;4968404;29;20450;-80
2023/05/31 00:43:43;;;;;;;11.83;9.10;;;12.00;99.90;;;;;;4969233;29;20533;-81
2023/05/31 00:46:25;;;;;;;13.80;9.40;;;11.90;99.90;;;;;;4968064;29;20541;-81
2023/05/31 00:48:53;;;;;;;12.10;8.77;;;11.90;99.90;;;;;;4970407;29;20446;-80
2023/05/31 00:51:22;;;;;;;14.23;8.87;;;11.90;99.90;;;;;;4968549;28;20458;-80
2023/05/31 00:53:51;;;;;;;12.03;8.40;;;11.90;99.90;;;;;;4968862;29;20506;-81
2023/05/31 00:56:21;;;;;;;13.37;8.57;;;11.90;99.90;;;;;;4968668;29;20530;-80
2023/05/31 00:58:52;;;;;;;12.70;8.60;;;11.80;99.90;;;;;;4968203;29;20451;-80
2023/05/31 01:01:26;;;;;;;13.00;8.70;;;11.80;99.90;;;;;;4970076;29;20455;-81
2023/05/31 01:03:55;;;;;;;12.33;8.57;;;11.80;99.90;;;;;;4969334;29;20463;-81
2023/05/31 01:06:24;;;;;;;11.33;9.30;;;11.80;99.90;;;;;;4969062;29;20467;-80
2023/05/31 01:08:53;;;;;;;13.13;9.40;;;11.80;99.90;;;;;;4968556;29;20455;-81
2023/05/31 01:11:30;;;;;;;12.70;9.57;;;11.70;99.90;;;;;;4968427;29;20451;-82
2023/05/31 01:14:11;;;;;;;11.70;9.90;;;11.70;99.90;;;;;;4968242;29;20451;-81
2023/05/31 01:16:46;;;;;;;12.90;9.00;;;11.70;99.90;;;;;;4967915;29;20509;-82
2023/05/31 01:19:35;;;;;;;11.30;9.07;;;11.60;99.90;;;;;;4968055;29;20442;-80
2023/05/31 01:22:20;;;;;;;14.70;11.10;;;11.60;99.90;;;;;;4967694;29;20518;-81
2023/05/31 01:25:01;;;;;;;14.87;9.07;;;11.60;99.90;;;;;;4967250;29;20467;-82
2023/05/31 01:27:32;;;;;;;13.70;9.27;;;11.60;99.90;;;;;;4967121;29;20490;-81
2023/05/31 01:30:03;;;;;;;11.27;9.57;;;11.50;99.90;;;;;;4967253;29;20442;-81
2023/05/31 01:32:34;;;;;;;11.40;9.67;;;11.50;99.90;;;;;;4966637;29;20450;-81
2023/05/31 01:35:04;;;;;;;13.00;9.63;;;11.50;99.90;;;;;;4966751;29;20451;-81
2023/05/31 01:37:32;;;;;;;14.40;9.13;;;11.40;99.90;;;;;;4967203;29;20478;-81
2023/05/31 01:40:01;;;;;;;12.93;9.37;;;11.40;99.90;;;;;;4965981;29;20459;-81
2023/05/31 01:42:31;;;;;;;14.80;9.63;;;11.40;99.90;;;;;;4966586;29;20470;-81
2023/05/31 01:45:01;;;;;;;12.00;9.40;;;11.40;99.90;;;;;;4966430;29;20474;-81
2023/05/31 01:47:31;;;;;;;12.10;8.87;;;11.40;99.90;;;;;;4967498;29;20470;-81
2023/05/31 01:50:00;;;;;;;12.80;9.00;;;11.30;99.90;;;;;;4965823;29;20477;-81
2023/05/31 01:52:29;;;;;;;12.57;8.87;;;11.20;99.90;;;;;;4966354;29;20478;-81
2023/05/31 01:54:57;;;;;;;13.93;8.97;;;11.30;99.90;;;;;;4966367;28;20451;-81
2023/05/31 01:57:28;;;;;;;10.70;9.07;;;11.20;99.90;;;;;;4966056;29;20510;-81
2023/05/31 02:00:00;;;;;;;11.73;8.37;;;11.20;99.90;;;;;;4966079;29;20941;-81
2023/05/31 02:02:29;;;;;;;11.97;8.77;;;11.20;99.90;;;;;;4966218;28;20442;-81
2023/05/31 02:05:08;;;;;;;14.90;9.67;;;11.20;99.90;;;;;;4969184;29;20533;-80
2023/05/31 02:07:37;;;;;;;11.30;9.20;;;11.20;99.90;;;;;;4969729;29;20462;-82
2023/05/31 02:10:06;;;;;;;13.13;8.90;;;11.10;99.90;;;;;;4969307;29;20474;-81
2023/05/31 02:12:37;;;;;;;11.60;9.10;;;11.10;99.90;;;;;;4968971;29;20474;-80
2023/05/31 02:15:10;;;;;;;12.20;8.70;;;11.10;99.90;;;;;;4969462;29;20478;-81
2023/05/31 02:17:42;;;;;;;12.67;9.00;;;11.10;99.90;;;;;;4969032;29;20473;-80
2023/05/31 02:20:12;;;;;;;12.63;8.03;;;11.00;99.90;;;;;;4967934;29;20450;-81
2023/05/31 02:22:41;;;;;;;11.77;9.00;;;11.00;99.90;;;;;;4969071;29;20443;-81
2023/05/31 02:25:10;;;;;;;12.00;8.87;;;11.00;99.90;;;;;;4968012;29;20478;-81
2023/05/31 02:27:41;;;;;;;12.63;8.50;;;11.00;99.90;;;;;;4968809;29;20561;-81
2023/05/31 02:30:12;;;;;;;15.67;10.20;;;11.00;99.90;;;;;;4968044;29;20513;-81
2023/05/31 02:32:41;;;;;;;15.53;9.60;;;10.90;99.90;;;;;;4969042;28;20446;-81
2023/05/31 02:35:11;;;;;;;16.33;9.67;;;10.90;99.90;;;;;;4968408;29;20462;-81
2023/05/31 02:37:40;;;;;;;12.40;9.87;;;10.90;99.90;;;;;;4968084;29;20477;-81
2023/05/31 02:40:09;;;;;;;13.37;9.43;;;10.80;99.90;;;;;;4968018;29;20461;-81
2023/05/31 02:42:41;;;;;;;12.60;8.83;;;10.90;99.90;;;;;;4969320;29;20526;-80
2023/05/31 02:45:11;;;;;;;13.00;8.73;;;10.80;99.90;;;;;;4967737;29;20501;-81
2023/05/31 02:47:40;;;;;;;14.50;9.20;;;10.80;99.90;;;;;;4968794;29;20478;-80
2023/05/31 02:50:11;;;;;;;11.57;9.37;;;10.80;99.90;;;;;;4971496;29;20450;-81
2023/05/31 02:52:50;;;;;;;10.13;8.40;;;10.80;99.90;;;;;;4971093;29;20466;-81
2023/05/31 02:55:41;;;;;;;12.17;8.63;;;10.70;99.90;;;;;;4968573;29;20506;-80
2023/05/31 02:58:29;;;;;;;10.10;7.70;;;10.70;99.90;;;;;;4971066;29;20465;-81
2023/05/31 03:01:24;;;;;;;11.43;8.90;;;10.70;99.90;;;;;;4971065;28;20447;-81
2023/05/31 03:04:15;;;;;;;13.47;9.20;;;10.60;99.90;;;;;;4969989;29;20541;-81
2023/05/31 03:06:44;;;;;;;11.83;8.90;;;10.60;99.90;;;;;;4969440;29;21003;-80
2023/05/31 03:09:16;;;;;;;11.93;8.13;;;10.60;99.90;;;;;;4969258;29;20451;-81
2023/05/31 03:11:45;;;;;;;12.90;10.13;;;10.50;99.90;;;;;;4968629;29;21010;-81
2023/05/31 03:14:14;;;;;;;18.50;14.23;;;10.60;99.90;;;;;;4967878;28;20462;-81
2023/05/31 03:16:51;;;;;;;18.20;13.53;;;10.50;99.90;;;;;;4967998;28;20478;-80
2023/05/31 03:19:20;;;;;;;16.27;12.77;;;10.50;99.90;;;;;;4968295;28;20466;-81
2023/05/31 03:21:52;;;;;;;13.93;11.10;;;10.50;99.90;;;;;;4968904;29;20454;-81
2023/05/31 03:24:25;;;;;;;18.63;11.20;;;10.50;99.90;;;;;;4967936;29;20458;-80
2023/05/31 03:26:55;;;;;;;16.43;9.60;;;10.50;99.90;;;;;;4968891;28;20493;-81
2023/05/31 03:29:25;;;;;;;16.40;12.17;;;10.50;99.90;;;;;;4968681;29;20454;-81
2023/05/31 03:32:00;;;;;;;32.30;26.87;;;10.50;99.90;;;;;;4968421;29;20454;-81
2023/05/31 03:34:30;;;;;;;34.00;28.13;;;10.40;99.90;;;;;;4968941;29;20509;-81
2023/05/31 03:36:58;;;;;;;21.90;17.60;;;10.40;99.90;;;;;;4967751;28;20493;-81
2023/05/31 03:39:48;;;;;;;19.83;16.10;;;10.40;99.90;;;;;;4968034;28;20455;-81
2023/05/31 03:42:27;;;;;;;16.53;13.90;;;10.30;99.90;;;;;;4968321;28;20447;-81
2023/05/31 03:44:55;;;;;;;15.83;12.60;;;10.40;99.90;;;;;;4970049;28;20497;-81
2023/05/31 03:47:26;;;;;;;14.83;12.30;;;10.30;99.90;;;;;;4967490;29;20478;-81
2023/05/31 03:49:56;;;;;;;15.17;11.53;;;10.30;99.90;;;;;;4967589;29;20482;-81
2023/05/31 03:52:25;;;;;;;13.90;10.57;;;10.30;99.90;;;;;;4968475;28;20419;-81
2023/05/31 03:54:53;;;;;;;16.00;10.53;;;10.30;99.90;;;;;;4966319;28;20451;-81
2023/05/31 03:57:22;;;;;;;14.87;10.57;;;10.30;99.90;;;;;;4967700;28;20549;-80
2023/05/31 03:59:51;;;;;;;13.90;10.50;;;10.30;99.90;;;;;;4967424;28;20469;-81
2023/05/31 04:02:19;;;;;;;18.13;11.10;;;10.30;99.90;;;;;;4968111;28;20442;-81
2023/05/31 04:04:50;;;;;;;16.40;11.80;;;10.30;99.90;;;;;;4965960;28;20486;-81
2023/05/31 04:07:19;;;;;;;17.50;11.70;;;10.50;99.90;;;;;;4965836;29;20509;-81
2023/05/31 04:09:47;;;;;;;21.17;12.50;;;10.40;99.90;;;;;;4966205;28;20458;-81
2023/05/31 04:12:16;;;;;;;18.87;11.70;;;10.40;99.90;;;;;;4965882;29;20458;-81
2023/05/31 04:14:44;;;;;;;19.57;11.97;;;10.40;99.90;;;;;;4965583;28;20817;-81
2023/05/31 04:17:15;;;;;;;21.50;12.63;;;10.40;99.90;;;;;;4966194;29;20478;-82
2023/05/31 04:19:44;;;;;;;20.30;12.13;;;10.50;99.90;;;;;;4965395;29;20451;-81
2023/05/31 04:22:15;;;;;;;17.43;13.23;;;10.50;99.90;;;;;;4965949;28;20980;-81
2023/05/31 04:24:43;;;;;;;15.40;12.87;;;10.50;99.90;;;;;;4966123;29;20455;-81
2023/05/31 04:27:19;;;;;;;18.73;13.20;;;10.50;99.90;;;;;;4966137;28;20470;-81
2023/05/31 04:29:51;;;;;;;18.00;14.30;;;10.50;99.90;;;;;;4966386;28;20466;-82
2023/05/31 04:32:21;;;;;;;18.10;12.80;;;10.50;99.90;;;;;;4966982;28;20455;-81
2023/05/31 04:34:52;;;;;;;16.20;11.80;;;10.60;99.90;;;;;;4967562;29;20514;-81
2023/05/31 04:37:21;;;;;;;16.93;12.60;;;10.60;99.90;;;;;;4967676;28;20462;-82
2023/05/31 04:39:50;;;;;;;17.87;12.37;;;10.60;99.90;;;;;;4967300;29;20458;-82
2023/05/31 04:42:18;;;;;;;18.77;12.83;;;10.70;99.90;;;;;;4968456;29;20821;-82
2023/05/31 04:44:46;;;;;;;18.97;12.60;;;10.70;99.90;;;;;;4968595;28;20454;-82
2023/05/31 04:47:16;;;;;;;16.73;12.30;;;10.70;99.90;;;;;;4968260;29;20498;-82
2023/05/31 04:49:45;;;;;;;15.83;11.40;;;10.70;99.90;;;;;;4968286;29;20447;-82
2023/05/31 04:52:27;;;;;;;18.07;11.13;;;10.80;99.90;;;;;;4967322;29;20450;-82
2023/05/31 04:54:55;;;;;;;16.77;11.60;;;10.70;99.90;;;;;;4967893;28;20505;-82
2023/05/31 04:57:26;;;;;;;17.70;11.20;;;10.80;99.90;;;;;;4968175;28;20494;-83
2023/05/31 05:00:00;;;;;;;17.60;11.40;;;10.80;99.90;;;;;;4967201;28;20489;-82
2023/05/31 05:02:31;;;;;;;15.47;10.63;;;10.80;99.90;;;;;;4967194;28;20445;-82
2023/05/31 05:05:04;;;;;;;15.07;11.67;;;10.90;99.90;;;;;;4967087;29;20478;-82
2023/05/31 05:07:34;;;;;;;14.97;12.30;;;10.90;99.90;;;;;;4965113;28;20470;-80
2023/05/31 05:10:04;;;;;;;20.10;12.17;;;11.00;99.90;;;;;;4966924;29;20893;-81
2023/05/31 05:12:34;;;;;;;13.83;11.20;;;11.00;99.90;;;;;;4966083;28;20442;-81
2023/05/31 05:15:03;;;;;;;17.60;11.87;;;11.00;99.90;;;;;;4967026;28;20801;-81
2023/05/31 05:17:32;;;;;;;17.70;11.50;;;11.10;99.90;;;;;;4965932;29;20495;-81
2023/05/31 05:20:00;;;;;;;15.13;11.60;;;11.10;99.90;;;;;;4967319;28;20546;-81
2023/05/31 05:22:29;;;;;;;19.87;12.00;;;11.10;99.90;;;;;;4969699;28;20447;-80
2023/05/31 05:25:00;;;;;;;14.33;11.27;;;11.20;99.90;;;;;;4971219;28;20454;-81
2023/05/31 05:27:28;;;;;;;15.30;11.50;;;11.30;99.90;;;;;;4970849;28;20490;-81
2023/05/31 05:29:56;;;;;;;12.93;10.53;;;11.30;99.90;;;;;;4964437;28;20453;-81
2023/05/31 05:32:25;;;;;;;15.47;11.60;;;11.40;99.90;;;;;;4963838;28;20461;-81
2023/05/31 05:34:55;;;;;;;17.27;12.40;;;11.50;99.90;;;;;;4965522;28;20467;-81
2023/05/31 05:37:23;;;;;;;19.27;13.47;;;11.50;99.90;;;;;;4965550;28;20529;-82
2023/05/31 05:39:52;;;;;;;17.10;12.80;;;11.70;99.90;;;;;;4970536;29;20450;-82
2023/05/31 05:42:21;;;;;;;17.37;12.70;;;11.80;99.90;;;;;;4970234;28;20450;-82
2023/05/31 05:44:49;;;;;;;30.97;20.70;;;12.00;99.90;;;;;;4968859;29;20450;-82
2023/05/31 05:47:17;;;;;;;39.00;25.50;;;12.10;99.90;;;;;;4969523;28;20569;-81
2023/05/31 05:49:50;;;;;;;35.10;23.50;;;12.30;99.90;;;;;;4963796;28;20470;-81
2023/05/31 05:52:19;;;;;;;39.40;24.57;;;12.50;99.90;;;;;;4963432;29;20506;-80
2023/05/31 05:54:47;;;;;;;33.73;23.23;;;12.80;99.90;;;;;;4962896;28;20450;-82
2023/05/31 05:57:16;;;;;;;32.17;21.60;;;13.00;99.90;;;;;;4962983;29;20470;-80
2023/05/31 05:59:49;;;;;;;28.70;19.80;;;13.20;99.90;;;;;;4963404;28;20445;-81
2023/05/31 06:02:22;;;;;;;31.80;22.80;;;13.50;99.90;;;;;;4962972;29;20446;-81
2023/05/31 06:04:53;;;;;;;37.17;24.40;;;13.70;99.90;;;;;;4963329;29;20443;-81
2023/05/31 06:07:21;;;;;;;34.23;23.60;;;13.90;99.90;;;;;;4964244;29;20505;-81
2023/05/31 06:09:52;;;;;;;39.07;27.60;;;14.10;99.90;;;;;;4963475;29;20450;-81
2023/05/31 06:12:21;;;;;;;35.13;23.63;;;14.30;99.90;;;;;;4963714;28;20454;-81
2023/05/31 06:14:51;;;;;;;25.23;16.93;;;14.50;99.90;;;;;;4963875;28;20461;-81
2023/05/31 06:17:23;;;;;;;17.47;12.97;;;14.80;99.90;;;;;;4963189;29;20478;-81
2023/05/31 06:19:51;;;;;;;16.33;11.43;;;15.00;99.90;;;;;;4962836;29;20525;-81
2023/05/31 06:22:20;;;;;;;16.33;10.97;;;15.20;99.90;;;;;;4963103;28;20517;-81
2023/05/31 06:24:50;;;;;;;17.90;12.33;;;15.50;99.90;;;;;;4963459;29;20438;-81
2023/05/31 06:27:18;;;;;;;15.20;11.73;;;15.70;99.90;;;;;;4963367;29;20478;-82
2023/05/31 06:29:47;;;;;;;18.52;12.20;;;15.90;99.90;;;;;;4963072;28;20549;-82
2023/05/31 06:32:28;;;;;;;17.20;10.57;;;16.00;99.90;;;;;;4963770;28;20301;-81
2023/05/31 06:34:59;;;;;;;19.63;11.60;;;16.30;99.90;;;;;;4964597;28;20846;-82
2023/05/31 06:37:27;;;;;;;15.10;11.07;;;16.40;99.90;;;;;;4964352;28;20805;-82
2023/05/31 06:39:57;;;;;;;17.03;11.63;;;16.50;99.90;;;;;;4963443;29;20475;-81
2023/05/31 06:42:27;;;;;;;19.07;11.10;;;16.70;99.90;;;;;;4963243;29;20417;-81
2023/05/31 06:44:58;;;;;;;15.43;9.97;;;16.80;99.90;;;;;;4964366;28;20525;-81
2023/05/31 06:48:00;;;;;;;16.00;9.43;;;16.90;99.90;;;;;;4952809;29;20884;-81
2023/05/31 06:50:47;;;;;;;13.77;9.07;;;17.10;99.90;;;;;;4964049;28;20430;-82
2023/05/31 06:53:34;;;;;;;14.37;8.97;;;17.30;99.90;;;;;;4964059;29;20434;-81
2023/05/31 06:56:13;;;;;;;13.83;8.00;;;17.40;99.90;;;;;;4962135;29;20853;-81
2023/05/31 06:58:42;;;;;;;12.80;8.50;;;17.60;99.90;;;;;;4961280;29;20454;-81
2023/05/31 07:01:11;;;;;;;13.30;8.93;;;17.70;99.90;;;;;;4963376;29;20417;-81
2023/05/31 07:03:40;;;;;;;11.13;7.90;;;17.80;99.90;;;;;;4960943;29;20445;-82
2023/05/31 07:06:09;;;;;;;13.70;8.80;;;17.90;99.90;;;;;;4960310;28;20460;-81
2023/05/31 07:08:38;;;;;;;11.90;7.30;;;17.90;99.90;;;;;;4960902;29;20462;-81
2023/05/31 07:11:26;;;;;;;12.87;7.60;;;18.10;99.90;;;;;;4961888;29;20578;-81
2023/05/31 07:13:59;;;;;;;13.03;8.23;;;18.20;99.90;;;;;;4960693;29;20455;-81
2023/05/31 07:16:27;;;;;;;14.73;8.90;;;18.30;99.90;;;;;;4960349;29;20500;-82
2023/05/31 07:18:59;;;;;;;13.57;7.90;;;18.40;99.90;;;;;;4959909;29;20445;-82
2023/05/31 07:21:28;;;;;;;12.57;8.10;;;18.50;99.90;;;;;;4960484;29;20421;-82
2023/05/31 07:23:56;;;;;;;12.10;7.50;;;18.60;99.90;;;;;;4960514;29;20527;-82
2023/05/31 07:26:25;;;;;;;15.90;8.80;;;18.70;99.90;;;;;;4960095;29;20885;-82
2023/05/31 07:28:53;;;;;;;17.70;8.50;;;18.80;99.90;;;;;;4960485;29;20486;-82
2023/05/31 07:31:23;;;;;;;12.00;7.90;;;18.90;99.90;;;;;;4958650;29;20437;-81
2023/05/31 07:33:51;;;;;;;12.43;7.93;;;19.00;99.90;;;;;;4959531;29;20478;-81
2023/05/31 07:36:24;;;;;;;12.70;8.50;;;19.10;99.90;;;;;;4959375;29;20480;-80
2023/05/31 07:38:53;;;;;;;13.50;9.23;;;19.30;99.90;;;;;;4958900;29;20438;-80
2023/05/31 07:41:21;;;;;;;16.87;9.17;;;19.30;99.90;;;;;;4959781;29;20521;-81
2023/05/31 07:43:50;;;;;;;15.67;9.17;;;19.40;99.90;;;;;;4959088;29;20454;-81
2023/05/31 07:46:18;;;;;;;14.20;8.83;;;19.50;99.90;;;;;;4958864;29;20517;-81
2023/05/31 07:48:47;;;;;;;10.80;7.00;;;19.50;99.90;;;;;;4959663;29;20466;-81
2023/05/31 07:51:15;;;;;;;10.50;7.27;;;19.60;99.90;;;;;;4958720;29;20458;-81
2023/05/31 07:53:44;;;;;;;16.43;8.50;;;19.60;99.90;;;;;;4958552;29;20490;-80
2023/05/31 07:56:13;;;;;;;12.47;8.17;;;19.60;99.90;;;;;;4959078;29;21051;-80
2023/05/31 07:58:41;;;;;;;13.47;8.13;;;19.60;99.90;;;;;;4960019;29;20446;-81
2023/05/31 08:01:09;;;;;;;12.60;8.50;;;19.60;99.90;;;;;;4958284;28;20459;-80
2023/05/31 08:03:37;;;;;;;13.30;7.90;;;19.60;99.90;;;;;;4958971;29;20475;-80
2023/05/31 08:06:06;;;;;;;11.83;6.63;;;19.60;99.90;;;;;;4959432;29;20502;-80
2023/05/31 08:08:34;;;;;;;14.47;6.70;;;19.60;99.90;;;;;;4959783;29;20475;-81
2023/05/31 08:11:04;;;;;;;9.43;6.37;;;19.70;99.90;;;;;;4960120;29;20474;-81
2023/05/31 08:13:33;;;;;;;8.67;5.80;;;19.80;99.90;;;;;;4960231;29;20534;-81
2023/05/31 08:16:01;;;;;;;12.50;6.33;;;19.80;99.90;;;;;;4959654;29;20478;-80
2023/05/31 08:18:29;;;;;;;9.67;6.30;;;19.80;99.90;;;;;;4960552;29;20509;-81
2023/05/31 08:20:58;;;;;;;9.27;5.30;;;19.90;99.90;;;;;;4959923;29;20956;-80
2023/05/31 08:23:27;;;;;;;9.50;5.10;;;20.00;99.90;;;;;;4960702;29;20430;-81
2023/05/31 08:25:55;;;;;;;12.50;4.87;;;20.00;99.90;;;;;;4962039;29;20569;-83
2023/05/31 08:28:27;;;;;;;9.37;4.90;;;20.10;99.90;;;;;;4961795;29;20470;-80
2023/05/31 08:30:58;;;;;;;10.23;5.47;;;20.10;99.90;;;;;;4961926;28;20418;-80
2023/05/31 08:33:30;;;;;;;8.40;5.50;;;20.20;99.90;;;;;;4960171;29;20458;-81
2023/05/31 08:35:59;;;;;;;8.20;5.63;;;20.20;99.90;;;;;;4959694;29;20467;-82
2023/05/31 08:38:27;;;;;;;8.47;4.80;;;20.30;99.90;;;;;;4960578;29;20451;-81
2023/05/31 08:40:58;;;;;;;9.00;5.43;;;20.30;99.90;;;;;;4960410;29;20493;-81
2023/05/31 08:43:30;;;;;;;9.00;5.13;;;20.40;99.90;;;;;;4959706;29;20442;-80
2023/05/31 08:45:58;;;;;;;14.80;4.80;;;20.40;99.90;;;;;;4961184;29;20462;-81
2023/05/31 08:48:31;;;;;;;9.17;4.63;;;20.50;99.90;;;;;;4962599;29;20470;-82
2023/05/31 08:51:02;;;;;;;8.27;4.50;;;20.50;99.90;;;;;;4960152;29;20455;-81
2023/05/31 08:53:31;;;;;;;8.30;3.80;;;20.60;99.90;;;;;;4959960;29;20462;-82
2023/05/31 08:56:01;;;;;;;8.80;4.00;;;20.70;99.90;;;;;;4959794;29;20498;-82
2023/05/31 08:58:31;;;;;;;10.77;5.50;;;20.70;99.90;;;;;;4960264;29;20443;-82
2023/05/31 09:01:00;;;;;;;14.37;4.37;;;20.80;99.90;;;;;;4960196;29;20435;-80
2023/05/31 09:03:29;;;;;;;9.47;4.23;;;20.80;99.90;;;;;;4959873;29;20439;-84
2023/05/31 09:05:57;;;;;;;7.87;4.07;;;20.90;99.90;;;;;;4958996;29;20478;-83
2023/05/31 09:08:26;;;;;;;8.50;4.30;;;20.90;99.90;;;;;;4958765;29;20467;-81
2023/05/31 09:10:54;;;;;;;12.73;4.73;;;20.90;99.90;;;;;;4962765;29;20451;-81
2023/05/31 09:13:23;;;;;;;9.40;6.27;;;20.90;99.90;;;;;;4959930;28;20944;-80
2023/05/31 09:15:53;;;;;;;10.53;4.23;;;21.00;99.90;;;;;;4959200;29;20502;-80
2023/05/31 09:18:25;;;;;;;9.70;4.13;;;21.10;99.90;;;;;;4958349;29;20446;-81
2023/05/31 09:20:55;;;;;;;6.37;3.83;;;21.10;99.90;;;;;;4959178;29;20509;-81
2023/05/31 09:23:24;;;;;;;6.93;3.80;;;21.10;99.90;;;;;;4959274;29;20447;-81
2023/05/31 09:25:53;;;;;;;8.07;3.53;;;21.20;99.90;;;;;;4960786;29;20462;-82
2023/05/31 09:28:23;;;;;;;7.97;3.50;;;21.20;99.90;;;;;;4963596;29;20543;-82
2023/05/31 09:31:08;;;;;;;6.67;3.37;;;21.30;99.90;;;;;;4961694;29;20470;-82
2023/05/31 09:33:40;;;;;;;7.97;4.03;;;21.30;99.90;;;;;;4958314;28;20461;-79
2023/05/31 09:36:09;;;;;;;6.83;3.87;;;21.40;99.90;;;;;;4962417;29;20459;-79
2023/05/31 09:38:38;;;;;;;8.00;4.17;;;21.40;99.90;;;;;;4961532;29;20482;-81
2023/05/31 09:41:14;;;;;;;7.07;4.00;;;21.50;99.90;;;;;;4960240;29;20960;-80
2023/05/31 09:43:44;;;;;;;7.83;3.73;;;21.50;99.90;;;;;;4959033;29;20450;-80
2023/05/31 09:46:14;;;;;;;9.60;4.10;;;21.50;99.90;;;;;;4959745;29;20478;-80
2023/05/31 09:48:43;;;;;;;6.80;3.10;;;21.50;99.90;;;;;;4957932;29;20471;-79
2023/05/31 09:51:13;;;;;;;6.07;3.37;;;21.60;99.90;;;;;;4959347;29;20454;-80
2023/05/31 09:53:43;;;;;;;10.37;3.60;;;21.60;99.90;;;;;;4958448;29;20474;-79
2023/05/31 09:56:17;;;;;;;7.70;3.60;;;21.60;99.90;;;;;;4958973;29;20486;-79
2023/05/31 09:58:46;;;;;;;6.00;3.43;;;21.70;99.90;;;;;;4958056;29;20454;-79
2023/05/31 10:01:16;;;;;;;6.13;3.83;;;21.70;99.70;;;;;;4959227;29;20871;-79
2023/05/31 10:03:45;;;;;;;5.90;3.27;;;21.70;99.80;;;;;;4958853;29;20460;-79
2023/05/31 10:06:17;;;;;;;7.67;3.50;;;21.70;99.60;;;;;;4957306;29;20490;-80
2023/05/31 10:08:46;;;;;;;8.33;4.70;;;21.80;99.60;;;;;;4959393;29;20466;-81
2023/05/31 10:11:17;;;;;;;7.33;4.60;;;21.80;99.70;;;;;;4959595;29;20454;-80
2023/05/31 10:13:48;;;;;;;7.20;4.37;;;21.90;99.70;;;;;;4960033;29;20525;-80
2023/05/31 10:16:20;;;;;;;11.23;4.40;;;22.00;99.80;;;;;;4960362;29;20491;-80
2023/05/31 10:18:54;;;;;;;8.73;4.90;;;22.00;99.80;;;;;;4960683;29;20533;-82
2023/05/31 10:21:25;;;;;;;6.93;4.63;;;22.00;99.80;;;;;;4963217;29;20489;-79
2023/05/31 10:23:58;;;;;;;9.30;5.07;;;22.00;99.60;;;;;;4963607;28;20442;-80
2023/05/31 10:26:36;;;;;;;8.80;4.83;;;22.00;99.40;;;;;;4965819;29;20454;-80
2023/05/31 10:29:15;;;;;;;7.87;4.60;;;22.10;99.40;;;;;;4962973;29;20494;-79
2023/05/31 10:31:50;;;;;;;8.57;5.87;;;22.10;99.50;;;;;;4964458;29;20438;-79
2023/05/31 10:34:22;;;;;;;11.23;5.33;;;22.10;99.50;;;;;;4964530;29;20451;-79
2023/05/31 10:36:51;;;;;;;11.87;6.40;;;22.10;99.70;;;;;;4964794;29;20549;-80
2023/05/31 10:39:26;;;;;;;8.83;5.33;;;22.20;99.80;;;;;;4966020;29;20442;-80
2023/05/31 10:42:00;;;;;;;8.20;5.63;;;22.30;99.80;;;;;;4964142;29;20505;-79
2023/05/31 10:44:38;;;;;;;11.70;6.00;;;22.30;99.80;;;;;;4964409;29;20513;-77
2023/05/31 10:47:10;;;;;;;9.97;5.43;;;22.30;99.80;;;;;;4959498;29;20540;-78
2023/05/31 10:49:40;;;;;;;10.00;5.33;;;22.30;99.90;;;;;;4957833;29;20869;-76
2023/05/31 10:52:10;;;;;;;8.40;5.70;;;22.40;99.90;;;;;;4957227;29;20851;-76
2023/05/31 10:54:40;;;;;;;8.63;5.00;;;22.40;99.90;;;;;;4957798;29;20434;-76
2023/05/31 10:57:10;;;;;;;8.93;5.43;;;22.50;99.90;;;;;;4958999;29;20824;-76
2023/05/31 10:59:42;;;;;;;8.80;5.40;;;22.40;99.90;;;;;;4958066;29;20434;-77
2023/05/31 11:02:13;;;;;;;9.53;5.40;;;22.40;99.90;;;;;;4956505;29;20439;-77
2023/05/31 11:04:42;;;;;;;11.20;5.30;;;22.40;99.90;;;;;;4956787;29;20462;-78
2023/05/31 11:07:17;;;;;;;8.20;5.10;;;22.40;99.90;;;;;;4957616;29;20458;-77
2023/05/31 11:09:58;;;;;;;8.57;4.83;;;22.40;99.90;;;;;;4957613;29;20462;-78
2023/05/31 11:12:33;;;;;;;10.73;4.80;;;22.40;99.90;;;;;;4961624;29;20430;-78
2023/05/31 11:15:03;;;;;;;8.60;5.70;;;22.40;99.90;;;;;;4962345;29;20481;-81
2023/05/31 11:17:39;;;;;;;9.37;4.80;;;22.50;99.90;;;;;;4963768;29;20560;-80
2023/05/31 11:20:15;;;;;;;8.83;5.37;;;22.50;99.90;;;;;;4963206;29;20920;-81
2023/05/31 11:22:44;;;;;;;7.37;4.57;;;22.60;99.90;;;;;;4963121;29;20533;-80
2023/05/31 11:25:21;;;;;;;8.73;5.10;;;22.50;99.90;;;;;;4962424;29;20446;-80
2023/05/31 11:28:06;;;;;;;11.63;5.33;;;22.50;99.90;;;;;;4964264;29;20472;-80
2023/05/31 11:30:40;;;;;;;9.40;5.37;;;22.50;99.90;;;;;;4962723;29;20470;-80
2023/05/31 11:33:16;;;;;;;10.47;5.97;;;22.50;99.90;;;;;;4962521;29;20449;-80
2023/05/31 11:35:45;;;;;;;9.90;5.33;;;22.50;99.90;;;;;;4963486;28;21001;-79
2023/05/31 11:38:15;;;;;;;8.50;5.67;;;22.50;99.90;;;;;;4962618;29;20454;-81
2023/05/31 11:40:44;;;;;;;8.20;5.43;;;22.50;99.90;;;;;;4961741;29;20443;-80
2023/05/31 11:43:18;;;;;;;8.33;6.00;;;22.40;99.90;;;;;;4961298;29;20493;-81
2023/05/31 11:45:50;;;;;;;8.90;6.07;;;22.40;99.90;;;;;;4962026;29;20481;-79
2023/05/31 11:48:36;;;;;;;8.77;4.97;;;22.40;99.90;;;;;;4961524;29;20446;-80
2023/05/31 11:51:05;;;;;;;9.30;5.60;;;22.40;99.90;;;;;;4961992;29;20458;-80
2023/05/31 11:53:33;;;;;;;10.10;4.80;;;22.40;99.90;;;;;;4961244;29;20445;-79
2023/05/31 11:56:01;;;;;;;8.47;5.80;;;22.50;99.90;;;;;;4962083;29;20470;-80
2023/05/31 11:58:30;;;;;;;7.53;5.03;;;22.50;99.90;;;;;;4962549;29;20485;-80
2023/05/31 12:01:01;;;;;;;6.33;4.07;;;22.50;99.90;;;;;;4960590;29;20529;-80
2023/05/31 12:03:31;;;;;;;6.80;4.87;;;22.50;99.90;;;;;;4961624;29;20447;-80
2023/05/31 12:06:00;;;;;;;7.30;4.33;;;22.50;99.80;;;;;;4961727;29;20491;-80
2023/05/31 12:08:29;;;;;;;7.83;4.70;;;22.50;99.70;;;;;;4964086;29;20932;-80
2023/05/31 12:11:05;;;;;;;8.90;4.23;;;22.50;99.60;;;;;;4962927;29;20505;-80
2023/05/31 12:13:34;;;;;;;7.77;4.30;;;22.50;99.60;;;;;;4961721;29;20446;-80
2023/05/31 12:16:05;;;;;;;7.17;3.77;;;22.50;99.70;;;;;;4961140;29;21043;-80
2023/05/31 12:18:37;;;;;;;10.63;4.20;;;22.60;99.70;;;;;;4963141;29;20454;-83
2023/05/31 12:21:07;;;;;;;8.70;3.23;;;22.60;99.60;;;;;;4960690;29;20466;-82
2023/05/31 12:23:54;;;;;;;7.07;3.90;;;22.70;99.50;;;;;;4960252;29;20447;-84
2023/05/31 12:26:23;;;;;;;7.47;3.70;;;22.80;99.40;;;;;;4960633;29;20458;-76
2023/05/31 12:28:52;;;;;;;10.67;3.50;;;22.80;99.20;;;;;;4956063;29;20442;-76
2023/05/31 12:31:24;;;;;;;7.50;3.20;;;22.90;99.00;;;;;;4958839;29;20493;-83
2023/05/31 12:34:00;;;;;;;8.70;2.90;;;22.90;98.80;;;;;;4969545;29;20526;-86
2023/05/31 12:36:28;;;;;;;4.43;2.20;;;22.90;98.70;;;;;;4969092;29;20482;-85
2023/05/31 12:38:57;;;;;;;7.87;3.60;;;22.90;98.40;;;;;;4967473;29;20509;-84
2023/05/31 12:41:26;;;;;;;11.30;3.93;;;22.90;98.30;;;;;;4962232;29;21023;-80
2023/05/31 12:43:55;;;;;;;6.80;3.17;;;22.90;98.40;;;;;;4958391;29;20485;-80
2023/05/31 12:46:23;;;;;;;7.70;3.57;;;22.90;98.00;;;;;;4962962;29;20621;-79
2023/05/31 12:48:52;;;;;;;10.70;3.93;;;22.90;97.80;;;;;;4959592;28;20423;-79
2023/05/31 12:51:23;;;;;;;9.13;3.20;;;22.90;97.60;;;;;;4959981;29;20474;-79
2023/05/31 12:53:51;;;;;;;7.63;3.07;;;22.80;97.50;;;;;;4957664;29;20626;-81
2023/05/31 12:56:19;;;;;;;7.93;2.50;;;22.80;97.40;;;;;;4966156;29;20497;-79
2023/05/31 12:58:48;;;;;;;7.10;2.50;;;22.80;97.20;;;;;;4962728;29;20454;-79